createdAt,value
2019-03-06T00:02:19.430Z,64.81
2019-03-06T00:04:49.443Z,63.64
2019-03-06T00:07:19.939Z,63.65
2019-03-06T00:09:50.243Z,63.65
2019-03-06T00:12:20.835Z,65.28
2019-03-06T00:14:50.995Z,64.15
2019-03-06T00:17:20.939Z,63.07
2019-03-06T00:19:51.504Z,61.97
2019-03-06T00:22:21.436Z,63.26
2019-03-06T00:24:51.507Z,62.42
2019-03-06T00:27:21.460Z,62.03
2019-03-06T00:29:51.382Z,61.94
2019-03-06T00:32:21.302Z,64.92
2019-03-06T00:34:52.195Z,62.40
2019-03-06T00:37:22.442Z,62.91
2019-03-06T00:40:03.946Z,65.81
2019-03-06T00:42:36.721Z,62.56
2019-03-06T00:45:08.958Z,62.27
2019-03-06T00:47:39.213Z,61.59
2019-03-06T00:50:09.205Z,63.07
2019-03-06T00:52:39.499Z,63.76
2019-03-06T00:55:09.602Z,62.47
2019-03-06T00:57:39.531Z,61.87
2019-03-06T01:00:09.979Z,63.48
2019-03-06T01:02:39.894Z,61.00
2019-03-06T01:05:10.296Z,60.67
2019-03-06T01:07:40.554Z,60.19
2019-03-06T01:10:11.016Z,61.74
2019-03-06T01:12:41.531Z,61.43
2019-03-06T01:15:12.010Z,62.08
2019-03-06T01:17:42.024Z,61.04
2019-03-06T01:20:12.452Z,60.63
2019-03-06T01:22:42.520Z,60.84
2019-03-06T01:25:12.983Z,62.34
2019-03-06T01:27:42.999Z,63.51
2019-03-06T01:30:16.077Z,61.53
2019-03-06T01:32:47.754Z,61.68
2019-03-06T01:35:36.806Z,61.37
2019-03-06T01:38:13.803Z,61.63
2019-03-06T01:40:56.942Z,66.86
2019-03-06T01:43:31.143Z,64.01
2019-03-06T01:46:01.205Z,62.68
2019-03-06T01:48:31.384Z,62.15
2019-03-06T01:51:01.367Z,61.75
2019-03-06T01:53:31.268Z,61.10
2019-03-06T01:56:01.505Z,61.13
2019-03-06T01:58:31.445Z,63.84
2019-03-06T02:01:01.758Z,62.14
2019-03-06T02:03:31.691Z,63.06
2019-03-06T02:06:02.180Z,61.75
2019-03-06T02:08:32.654Z,61.98
2019-03-06T02:11:03.401Z,62.74
2019-03-06T02:13:33.557Z,63.39
2019-03-06T02:16:03.460Z,64.35
2019-03-06T02:18:33.528Z,63.46
2019-03-06T02:21:03.487Z,61.97
2019-03-06T02:23:33.355Z,62.19
2019-03-06T02:26:03.311Z,62.17
2019-03-06T02:28:33.538Z,61.74
2019-03-06T02:31:03.558Z,62.04
2019-03-06T02:33:33.590Z,61.92
2019-03-06T02:36:03.529Z,63.41
2019-03-06T02:38:33.458Z,62.30
2019-03-06T02:41:03.375Z,61.90
2019-03-06T02:43:33.721Z,62.15
2019-03-06T02:46:03.721Z,62.00
2019-03-06T02:48:33.619Z,64.17
2019-03-06T02:51:03.537Z,67.21
2019-03-06T02:53:33.458Z,66.14
2019-03-06T02:56:03.747Z,66.58
2019-03-06T02:58:50.191Z,64.42
2019-03-06T03:01:42.099Z,64.49
2019-03-06T03:04:22.638Z,63.40
2019-03-06T03:06:58.463Z,63.13
2019-03-06T03:09:28.760Z,62.63
2019-03-06T03:11:58.666Z,63.05
2019-03-06T03:14:28.576Z,64.64
2019-03-06T03:16:58.514Z,64.30
2019-03-06T03:19:28.479Z,64.84
2019-03-06T03:21:58.368Z,66.20
2019-03-06T03:24:28.390Z,63.52
2019-03-06T03:26:58.662Z,65.37
2019-03-06T03:29:28.603Z,63.87
2019-03-06T03:31:58.541Z,63.02
2019-03-06T03:34:29.064Z,63.36
2019-03-06T03:36:58.992Z,64.76
2019-03-06T03:39:29.144Z,62.87
2019-03-06T03:41:59.203Z,63.91
2019-03-06T03:44:29.427Z,62.30
2019-03-06T03:46:59.618Z,63.44
2019-03-06T03:49:29.537Z,64.99
2019-03-06T03:51:59.503Z,63.27
2019-03-06T03:54:29.790Z,62.47
2019-03-06T03:57:00.030Z,64.41
2019-03-06T03:59:30.615Z,63.38
2019-03-06T04:02:00.615Z,63.52
2019-03-06T04:04:30.787Z,62.53
2019-03-06T04:07:00.815Z,63.34
2019-03-06T04:09:31.021Z,62.98
2019-03-06T04:12:01.195Z,62.87
2019-03-06T04:14:31.419Z,64.68
2019-03-06T04:17:01.609Z,63.96
2019-03-06T04:19:31.534Z,64.09
2019-03-06T04:22:01.710Z,63.43
2019-03-06T04:24:32.693Z,64.14
2019-03-06T04:27:02.598Z,63.83
2019-03-06T04:29:32.622Z,64.96
2019-03-06T04:32:02.563Z,64.75
2019-03-06T04:34:32.475Z,66.17
2019-03-06T04:37:02.879Z,64.75
2019-03-06T04:39:32.841Z,66.51
2019-03-06T04:42:02.826Z,63.87
2019-03-06T04:44:32.959Z,63.57
2019-03-06T04:47:03.381Z,63.60
2019-03-06T04:49:33.340Z,63.30
2019-03-06T04:52:03.232Z,65.84
2019-03-06T04:54:33.101Z,63.84
2019-03-06T04:57:02.986Z,63.99
2019-03-06T04:59:32.940Z,63.86
2019-03-06T05:02:03.070Z,64.38
2019-03-06T05:04:33.344Z,63.77
2019-03-06T05:07:03.490Z,64.74
2019-03-06T05:09:33.382Z,63.81
2019-03-06T05:12:03.325Z,64.33
2019-03-06T05:14:33.465Z,64.08
2019-03-06T05:17:34.325Z,65.55
2019-03-06T05:20:04.882Z,64.79
2019-03-06T05:22:34.809Z,65.38
2019-03-06T05:25:05.173Z,64.92
2019-03-06T05:27:35.474Z,64.54
2019-03-06T05:30:06.035Z,63.88
2019-03-06T05:32:38.085Z,64.91
2019-03-06T05:35:19.723Z,64.76
2019-03-06T05:38:22.548Z,64.80
2019-03-06T05:40:52.524Z,64.90
2019-03-06T05:45:51.783Z,64.91
2019-03-06T05:48:21.685Z,64.45
2019-03-06T05:50:51.628Z,64.69
2019-03-06T05:53:21.525Z,64.55
2019-03-06T05:55:51.600Z,64.29
2019-03-06T05:58:21.898Z,64.11
2019-03-06T06:00:52.163Z,64.22
2019-03-06T06:03:22.099Z,64.10
2019-03-06T06:05:52.226Z,64.39
2019-03-06T06:08:23.487Z,64.23
2019-03-06T06:10:53.488Z,64.52
2019-03-06T06:13:23.464Z,64.25
2019-03-06T06:15:53.386Z,64.11
2019-03-06T06:18:24.874Z,63.54
2019-03-06T06:21:09.293Z,63.57
2019-03-06T06:23:42.519Z,63.89
2019-03-06T06:26:12.491Z,64.52
2019-03-06T06:28:42.490Z,64.27
2019-03-06T06:31:12.711Z,64.17
2019-03-06T06:33:43.080Z,64.04
2019-03-06T06:36:13.867Z,63.53
2019-03-06T06:38:43.790Z,64.34
2019-03-06T06:41:13.974Z,64.22
2019-03-06T06:43:44.353Z,64.02
2019-03-06T06:46:14.805Z,64.36
2019-03-06T06:48:45.141Z,63.84
2019-03-06T06:52:41.925Z,63.34
2019-03-06T06:55:54.969Z,63.70
2019-03-06T06:58:48.029Z,63.91
2019-03-06T07:02:22.364Z,63.21
2019-03-06T07:05:18.963Z,63.27
2019-03-06T07:08:04.190Z,63.28
2019-03-06T07:10:40.961Z,64.11
2019-03-06T07:13:29.821Z,64.04
2019-03-06T07:16:18.428Z,63.70
2019-03-06T07:19:22.277Z,62.88
2019-03-06T07:22:03.466Z,62.82
2019-03-06T07:24:45.752Z,62.68
2019-03-06T07:27:40.579Z,63.22
2019-03-06T07:30:19.914Z,62.82
2019-03-06T07:32:56.852Z,62.85
2019-03-06T07:36:14.899Z,62.24
2019-03-06T07:38:44.808Z,62.57
2019-03-06T07:41:31.800Z,62.61
2019-03-06T07:44:30.417Z,62.63
2019-03-06T07:47:18.503Z,62.33
2019-03-06T07:50:12.012Z,62.61
2019-03-06T07:52:59.213Z,62.18
2019-03-06T07:55:39.346Z,62.25
2019-03-06T07:59:01.952Z,62.01
2019-03-06T08:01:54.469Z,62.21
2019-03-06T08:04:25.160Z,62.31
2019-03-06T08:06:59.690Z,62.00
2019-03-06T08:09:30.321Z,61.33
2019-03-06T08:12:19.161Z,61.68
2019-03-06T08:15:08.287Z,61.38
2019-03-06T08:18:15.075Z,60.96
2019-03-06T08:21:22.003Z,61.24
2019-03-06T08:24:06.874Z,60.73
2019-03-06T08:26:37.016Z,61.24
2019-03-06T08:29:07.148Z,61.56
2019-03-06T08:31:40.326Z,60.71
2019-03-06T08:34:10.848Z,60.27
2019-03-06T08:36:41.223Z,60.24
2019-03-06T08:39:22.894Z,59.75
2019-03-06T08:41:52.762Z,59.78
2019-03-06T08:44:22.845Z,59.78
2019-03-06T08:47:05.815Z,58.81
2019-03-06T08:49:43.622Z,58.56
2019-03-06T08:52:22.166Z,57.88
2019-03-06T08:55:08.256Z,57.96
2019-03-06T08:57:44.988Z,57.61
2019-03-06T09:00:46.719Z,56.02
2019-03-06T09:03:34.532Z,56.17
2019-03-06T09:06:19.611Z,55.53
2019-03-06T09:09:02.239Z,55.69
2019-03-06T09:11:39.628Z,55.59
2019-03-06T09:14:24.124Z,55.09
2019-03-06T09:17:21.986Z,55.32
2019-03-06T09:20:09.328Z,55.63
2019-03-06T09:22:57.131Z,55.71
2019-03-06T09:25:39.844Z,55.82
2019-03-06T09:28:20.618Z,54.91
2019-03-06T09:30:57.551Z,55.04
2019-03-06T09:33:36.960Z,54.28
2019-03-06T09:36:23.256Z,54.56
2019-03-06T09:39:18.508Z,54.10
2019-03-06T09:42:06.797Z,54.23
2019-03-06T09:44:43.095Z,53.70
2019-03-06T09:47:22.359Z,53.90
2019-03-06T09:50:10.170Z,53.81
2019-03-06T09:53:08.159Z,53.70
2019-03-06T09:55:49.748Z,54.48
2019-03-06T09:58:50.711Z,53.00
2019-03-06T10:01:42.826Z,52.90
2019-03-06T10:04:40.915Z,53.35
2019-03-06T10:07:35.978Z,54.25
2019-03-06T10:10:21.034Z,53.69
2019-03-06T10:13:00.335Z,53.16
2019-03-06T10:15:36.874Z,51.94
2019-03-06T10:18:10.807Z,50.92
2019-03-06T10:20:40.946Z,50.82
2019-03-06T10:23:11.097Z,50.41
2019-03-06T10:25:41.352Z,50.29
2019-03-06T10:28:11.294Z,50.64
2019-03-06T10:30:41.711Z,49.61
2019-03-06T10:33:12.158Z,49.46
2019-03-06T10:35:43.004Z,50.31
2019-03-06T10:38:16.663Z,48.69
2019-03-06T10:40:46.732Z,50.17
2019-03-06T10:43:16.935Z,49.71
2019-03-06T10:45:50.374Z,47.86
2019-03-06T10:48:20.550Z,48.63
2019-03-06T10:50:50.818Z,47.69
2019-03-06T10:53:21.084Z,48.31
2019-03-06T10:55:51.287Z,47.75
2019-03-06T10:58:21.372Z,46.94
2019-03-06T11:00:58.177Z,46.70
2019-03-06T11:03:38.273Z,46.81
2019-03-06T11:06:10.993Z,46.17
2019-03-06T11:08:41.089Z,45.36
2019-03-06T11:11:11.601Z,45.02
2019-03-06T11:13:41.650Z,44.70
2019-03-06T11:16:13.292Z,44.74
2019-03-06T11:18:43.773Z,43.73
2019-03-06T11:21:14.004Z,43.26
2019-03-06T11:23:50.299Z,44.36
2019-03-06T11:26:20.436Z,43.65
2019-03-06T11:28:50.719Z,44.14
2019-03-06T11:31:21.033Z,43.38
2019-03-06T11:34:00.697Z,43.51
2019-03-06T11:36:32.469Z,43.31
2019-03-06T11:39:05.759Z,42.24
2019-03-06T11:41:38.660Z,42.04
2019-03-06T11:44:12.040Z,42.43
2019-03-06T11:46:45.572Z,41.85
2019-03-06T11:49:24.960Z,41.85
2019-03-06T11:51:55.376Z,41.84
2019-03-06T11:54:26.352Z,41.71
2019-03-06T11:56:56.692Z,41.71
2019-03-06T11:59:30.076Z,41.76
2019-03-06T12:02:00.853Z,42.36
2019-03-06T12:04:36.242Z,44.60
2019-03-06T12:07:31.975Z,42.83
2019-03-06T12:11:03.636Z,42.46
2019-03-06T12:14:16.767Z,41.55
2019-03-06T12:16:52.017Z,43.24
2019-03-06T12:19:43.224Z,42.50
2019-03-06T12:22:13.877Z,46.39
2019-03-06T12:25:38.145Z,43.56
2019-03-06T12:28:19.794Z,45.59
2019-03-06T12:31:14.136Z,47.13
2019-03-06T12:33:44.462Z,44.53
2019-03-06T12:40:24.212Z,42.32
2019-03-06T12:43:44.775Z,42.56
2019-03-06T12:46:23.561Z,42.26
2019-03-06T12:49:35.470Z,47.02
2019-03-06T12:52:13.526Z,43.57
2019-03-06T12:57:40.679Z,43.33
2019-03-06T13:00:26.778Z,42.89
2019-03-06T13:03:18.274Z,43.34
2019-03-06T13:05:59.160Z,46.58
2019-03-06T13:08:30.482Z,43.36
2019-03-06T13:11:25.165Z,42.77
2019-03-06T13:16:56.009Z,46.43
2019-03-06T13:19:54.228Z,44.10
2019-03-06T13:22:48.322Z,43.41
2019-03-06T13:25:32.078Z,43.42
2019-03-06T13:28:07.825Z,43.48
2019-03-06T13:30:41.380Z,44.66
2019-03-06T13:33:27.660Z,44.03
2019-03-06T13:37:09.769Z,45.44
2019-03-06T13:39:46.667Z,44.71
2019-03-06T13:42:23.338Z,44.04
2019-03-06T13:44:53.523Z,44.09
2019-03-06T13:47:27.334Z,46.79
2019-03-06T13:50:02.977Z,47.66
2019-03-06T13:52:43.663Z,44.48
2019-03-06T13:55:26.709Z,45.67
2019-03-06T13:58:00.181Z,43.80
2019-03-06T14:00:30.712Z,44.21
2019-03-06T14:04:04.041Z,45.97
2019-03-06T14:06:37.191Z,49.41
2019-03-06T14:09:11.918Z,45.43
2019-03-06T14:11:54.730Z,46.74
2019-03-06T14:14:25.412Z,47.04
2019-03-06T14:16:57.665Z,44.63
2019-03-06T14:19:47.645Z,44.32
2019-03-06T14:22:18.984Z,44.40
2019-03-06T14:25:16.388Z,44.35
2019-03-06T14:28:48.434Z,44.90
2019-03-06T14:31:20.152Z,45.20
2019-03-06T14:33:53.189Z,44.54
2019-03-06T14:36:24.192Z,46.73
2019-03-06T14:38:58.003Z,47.11
2019-03-06T14:41:29.501Z,45.09
2019-03-06T14:44:54.766Z,46.83
2019-03-06T14:48:37.894Z,45.35
2019-03-06T14:51:09.585Z,46.16
2019-03-06T14:53:41.343Z,46.57
2019-03-06T14:56:34.057Z,48.71
2019-03-06T15:08:59.871Z,47.75
2019-03-06T15:14:08.433Z,47.28
2019-03-06T15:16:39.430Z,46.57
2019-03-06T15:19:13.486Z,47.69
2019-03-06T15:21:46.197Z,47.36
2019-03-06T15:24:20.711Z,46.23
2019-03-06T15:27:10.065Z,48.69
2019-03-06T15:29:49.496Z,50.71
2019-03-06T15:32:26.422Z,49.45
2019-03-06T15:34:57.934Z,48.36
2019-03-06T15:37:36.861Z,47.30
2019-03-06T15:40:19.168Z,48.87
2019-03-06T15:46:46.682Z,47.89
2019-03-06T15:50:52.107Z,47.91
2019-03-06T15:53:24.353Z,47.37
2019-03-06T15:56:23.159Z,47.59
2019-03-06T15:59:26.266Z,48.99
2019-03-06T16:02:41.468Z,49.23
2019-03-06T16:05:21.363Z,49.01
2019-03-06T16:08:01.037Z,48.14
2019-03-06T16:10:41.762Z,50.43
2019-03-06T16:13:12.233Z,48.31
2019-03-06T16:16:01.863Z,47.55
2019-03-06T16:18:34.800Z,48.74
2019-03-06T16:21:43.784Z,48.01
2019-03-06T16:24:14.397Z,48.44
2019-03-06T16:26:48.987Z,48.53
2019-03-06T16:29:25.251Z,48.08
2019-03-06T16:32:13.943Z,50.36
2019-03-06T16:34:43.969Z,49.24
2019-03-06T16:37:39.464Z,48.92
2019-03-06T16:40:19.630Z,49.28
2019-03-06T16:43:14.941Z,49.23
2019-03-06T16:49:03.101Z,49.12
2019-03-06T16:52:27.883Z,49.70
2019-03-06T16:56:00.763Z,50.02
2019-03-06T16:58:50.301Z,50.54
2019-03-06T17:01:28.065Z,49.53
2019-03-06T17:04:50.796Z,50.11
2019-03-06T17:07:22.186Z,49.64
2019-03-06T17:10:21.366Z,50.12
2019-03-06T17:13:05.901Z,49.81
2019-03-06T17:15:36.167Z,49.94
2019-03-06T17:18:36.713Z,49.42
2019-03-06T17:28:14.346Z,50.20
2019-03-06T17:33:52.740Z,50.30
2019-03-06T17:36:27.099Z,50.22
2019-03-06T17:39:03.710Z,50.40
2019-03-06T17:41:34.366Z,49.99
2019-03-06T17:44:04.802Z,50.83
2019-03-06T17:46:42.409Z,50.29
2019-03-06T17:49:15.032Z,50.51
2019-03-06T17:51:46.053Z,50.09
2019-03-06T17:54:30.264Z,51.42
2019-03-06T17:57:08.502Z,50.80
2019-03-06T17:59:39.029Z,50.27
2019-03-06T18:02:09.412Z,52.01
2019-03-06T18:04:49.372Z,50.45
2019-03-06T18:07:19.928Z,50.20
2019-03-06T18:09:50.580Z,50.47
2019-03-06T18:12:21.141Z,50.33
2019-03-06T18:14:53.374Z,50.43
2019-03-06T18:17:29.514Z,50.27
2019-03-06T18:20:02.907Z,51.09
2019-03-06T18:22:37.532Z,51.15
2019-03-06T18:25:14.111Z,51.06
2019-03-06T18:27:44.298Z,51.01
2019-03-06T18:30:28.244Z,51.35
2019-03-06T18:33:17.274Z,51.19
2019-03-06T18:38:50.702Z,50.35
2019-03-06T18:41:42.809Z,51.15
2019-03-06T18:44:30.345Z,51.23
2019-03-06T18:47:44.169Z,50.48
2019-03-06T18:50:45.948Z,50.10
2019-03-06T18:53:18.955Z,50.59
2019-03-06T18:58:44.480Z,51.60
2019-03-06T19:01:16.690Z,50.32
2019-03-06T19:03:47.142Z,50.70
2019-03-06T19:06:22.059Z,51.01
2019-03-06T19:10:01.740Z,50.45
2019-03-06T19:18:14.683Z,50.49
2019-03-06T19:21:22.810Z,51.21
2019-03-06T19:23:53.445Z,50.88
2019-03-06T19:26:24.169Z,57.35
2019-03-06T19:28:55.195Z,50.39
2019-03-06T19:31:56.615Z,49.81
2019-03-06T19:34:44.229Z,49.21
2019-03-06T19:37:47.340Z,48.89
2019-03-06T19:41:02.805Z,48.76
2019-03-06T19:43:33.737Z,49.90
2019-03-06T19:46:05.018Z,49.37
2019-03-06T19:48:56.908Z,49.13
2019-03-06T19:51:26.904Z,48.93
2019-03-06T19:53:59.727Z,49.06
2019-03-06T19:56:30.617Z,48.64
2019-03-06T19:59:34.721Z,48.67
2019-03-06T20:02:08.245Z,48.61
2019-03-06T20:04:42.977Z,48.52
2019-03-06T20:07:48.548Z,48.51
2019-03-06T20:10:23.699Z,48.29
2019-03-06T20:12:54.625Z,48.33
2019-03-06T20:15:29.597Z,48.75
2019-03-06T20:18:19.705Z,48.70
2019-03-06T20:21:39.223Z,48.25
2019-03-06T20:24:24.815Z,49.01
2019-03-06T20:27:14.329Z,48.52
2019-03-06T20:29:47.818Z,48.84
2019-03-06T20:32:18.220Z,48.25
2019-03-06T20:34:48.855Z,48.13
2019-03-06T20:37:22.929Z,48.52
2019-03-06T20:39:54.418Z,48.00
2019-03-06T20:42:28.828Z,48.14
2019-03-06T20:45:00.356Z,48.29
2019-03-06T20:47:37.506Z,48.75
2019-03-06T20:50:08.381Z,48.66
2019-03-06T20:52:39.026Z,48.58
2019-03-06T20:55:15.191Z,48.04
2019-03-06T20:57:45.897Z,48.79
2019-03-06T21:00:21.565Z,48.50
2019-03-06T21:02:51.952Z,49.08
2019-03-06T21:05:22.794Z,48.68
2019-03-06T21:07:54.879Z,48.41
2019-03-06T21:10:25.907Z,48.67
2019-03-06T21:12:56.731Z,48.45
2019-03-06T21:15:26.941Z,48.78
2019-03-06T21:17:57.751Z,48.60
2019-03-06T21:20:30.481Z,48.59
2019-03-06T21:23:06.716Z,48.72
2019-03-06T21:25:40.583Z,48.65
2019-03-06T21:28:11.010Z,48.65
2019-03-06T21:30:41.841Z,48.76
2019-03-06T21:33:17.531Z,49.21
2019-03-06T21:36:10.939Z,48.71
2019-03-06T21:38:44.669Z,48.85
2019-03-06T21:41:40.318Z,48.60
2019-03-06T21:44:08.390Z,49.03
2019-03-06T21:50:11.208Z,49.09
2019-03-06T21:52:43.559Z,49.02
2019-03-06T21:55:25.849Z,49.34
2019-03-06T21:58:02.933Z,49.32
2019-03-06T22:00:33.989Z,49.64
2019-03-06T22:03:08.157Z,49.32
2019-03-06T22:05:42.193Z,49.31
2019-03-06T22:08:28.196Z,49.35
2019-03-06T22:11:08.857Z,49.11
2019-03-06T22:13:40.407Z,49.61
2019-03-06T22:16:12.498Z,49.33
2019-03-06T22:18:45.558Z,49.21
2019-03-06T22:21:18.561Z,49.63
2019-03-06T22:23:48.814Z,49.41
2019-03-06T22:26:25.693Z,49.35
2019-03-06T22:28:56.565Z,49.80
2019-03-06T22:31:26.675Z,49.45
2019-03-06T22:37:33.623Z,49.61
2019-03-06T22:40:24.073Z,49.46
2019-03-06T22:43:14.979Z,49.50
2019-03-06T22:45:45.257Z,49.52
2019-03-06T22:48:25.590Z,49.63
2019-03-06T22:50:56.012Z,50.09
2019-03-06T22:54:11.761Z,49.84
2019-03-06T22:56:42.529Z,49.88
2019-03-06T22:59:22.925Z,50.28
2019-03-06T23:05:03.041Z,49.79
2019-03-06T23:07:34.605Z,49.80
2019-03-06T23:10:05.800Z,50.11
2019-03-06T23:12:36.153Z,49.88
2019-03-06T23:15:06.669Z,50.13
2019-03-06T23:17:36.934Z,50.31
2019-03-06T23:20:07.574Z,50.85
2019-03-06T23:22:37.899Z,50.41
2019-03-06T23:25:08.456Z,50.41
2019-03-06T23:27:39.261Z,50.65
2019-03-06T23:30:14.658Z,50.70
2019-03-06T23:32:44.573Z,50.88
2019-03-06T23:35:15.616Z,51.17
2019-03-06T23:37:46.050Z,51.56
2019-03-06T23:40:17.750Z,51.86
2019-03-06T23:42:48.324Z,51.98
2019-03-06T23:45:18.507Z,52.05
2019-03-06T23:47:49.175Z,52.64
2019-03-06T23:50:19.681Z,52.92
2019-03-06T23:53:14.643Z,52.87
2019-03-06T23:55:44.958Z,53.08
2019-03-06T23:58:15.189Z,54.18
